sensor_id;sensor_type;location;lat;lon;timestamp;temperature;humidity
16287;DHT22;8251;53.568;10.018;2023-12-04T00:00:41;3.20;90.40
16287;DHT22;8251;53.568;10.018;2023-12-04T00:03:08;3.20;90.40
16287;DHT22;8251;53.568;10.018;2023-12-04T00:05:35;3.30;90.40
16287;DHT22;8251;53.568;10.018;2023-12-04T00:08:16;3.30;90.40
16287;DHT22;8251;53.568;10.018;2023-12-04T00:10:46;3.30;90.20
16287;DHT22;8251;53.568;10.018;2023-12-04T00:13:15;3.30;90.10
16287;DHT22;8251;53.568;10.018;2023-12-04T00:15:43;3.30;90.10
16287;DHT22;8251;53.568;10.018;2023-12-04T00:18:11;3.20;89.70
16287;DHT22;8251;53.568;10.018;2023-12-04T00:20:38;3.20;90.00
16287;DHT22;8251;53.568;10.018;2023-12-04T00:23:08;3.20;90.10
16287;DHT22;8251;53.568;10.018;2023-12-04T00:25:36;3.20;90.10
16287;DHT22;8251;53.568;10.018;2023-12-04T00:28:29;3.20;90.10
16287;DHT22;8251;53.568;10.018;2023-12-04T00:30:58;3.20;90.00
16287;DHT22;8251;53.568;10.018;2023-12-04T00:33:25;3.10;89.80
16287;DHT22;8251;53.568;10.018;2023-12-04T00:35:52;3.10;89.30
16287;DHT22;8251;53.568;10.018;2023-12-04T00:38:19;3.00;89.60
16287;DHT22;8251;53.568;10.018;2023-12-04T00:40:45;3.00;89.60
16287;DHT22;8251;53.568;10.018;2023-12-04T00:43:16;2.90;89.60
16287;DHT22;8251;53.568;10.018;2023-12-04T00:45:46;2.80;89.70
16287;DHT22;8251;53.568;10.018;2023-12-04T00:48:12;2.80;89.90
16287;DHT22;8251;53.568;10.018;2023-12-04T00:50:39;2.80;90.10
16287;DHT22;8251;53.568;10.018;2023-12-04T00:53:09;2.80;90.10
16287;DHT22;8251;53.568;10.018;2023-12-04T00:55:37;2.80;90.00
16287;DHT22;8251;53.568;10.018;2023-12-04T00:58:04;2.80;90.00
16287;DHT22;8251;53.568;10.018;2023-12-04T01:00:31;2.80;89.60
16287;DHT22;8251;53.568;10.018;2023-12-04T01:03:04;2.70;89.60
16287;DHT22;8251;53.568;10.018;2023-12-04T01:05:31;2.70;89.60
16287;DHT22;8251;53.568;10.018;2023-12-04T01:07:58;2.60;89.60
16287;DHT22;8251;53.568;10.018;2023-12-04T01:10:25;2.60;89.60
16287;DHT22;8251;53.568;10.018;2023-12-04T01:12:52;2.60;90.00
16287;DHT22;8251;53.568;10.018;2023-12-04T01:15:19;2.50;89.50
16287;DHT22;8251;53.568;10.018;2023-12-04T01:17:48;2.50;89.80
16287;DHT22;8251;53.568;10.018;2023-12-04T01:20:16;2.50;89.60
16287;DHT22;8251;53.568;10.018;2023-12-04T01:22:44;2.40;89.50
16287;DHT22;8251;53.568;10.018;2023-12-04T01:25:11;2.40;89.50
16287;DHT22;8251;53.568;10.018;2023-12-04T01:27:38;2.50;89.80
16287;DHT22;8251;53.568;10.018;2023-12-04T01:30:06;2.50;89.60
16287;DHT22;8251;53.568;10.018;2023-12-04T01:32:34;2.40;89.30
16287;DHT22;8251;53.568;10.018;2023-12-04T01:35:03;2.40;89.60
16287;DHT22;8251;53.568;10.018;2023-12-04T01:37:31;2.40;89.30
16287;DHT22;8251;53.568;10.018;2023-12-04T01:39:58;2.40;89.70
16287;DHT22;8251;53.568;10.018;2023-12-04T01:42:25;2.30;89.80
16287;DHT22;8251;53.568;10.018;2023-12-04T01:44:53;2.40;89.50
16287;DHT22;8251;53.568;10.018;2023-12-04T01:47:20;2.30;89.30
16287;DHT22;8251;53.568;10.018;2023-12-04T01:49:47;2.30;89.50
16287;DHT22;8251;53.568;10.018;2023-12-04T01:52:16;2.30;89.30
16287;DHT22;8251;53.568;10.018;2023-12-04T01:54:44;2.30;89.60
16287;DHT22;8251;53.568;10.018;2023-12-04T01:57:12;2.30;89.70
16287;DHT22;8251;53.568;10.018;2023-12-04T01:59:39;2.30;89.70
16287;DHT22;8251;53.568;10.018;2023-12-04T02:02:06;2.30;89.70
16287;DHT22;8251;53.568;10.018;2023-12-04T02:04:36;2.30;89.70
16287;DHT22;8251;53.568;10.018;2023-12-04T02:07:04;2.40;89.30
16287;DHT22;8251;53.568;10.018;2023-12-04T02:09:31;2.30;89.50
16287;DHT22;8251;53.568;10.018;2023-12-04T02:12:00;2.30;90.10
16287;DHT22;8251;53.568;10.018;2023-12-04T02:14:27;2.40;89.40
16287;DHT22;8251;53.568;10.018;2023-12-04T02:16:56;2.20;88.90
16287;DHT22;8251;53.568;10.018;2023-12-04T02:19:25;2.20;89.20
16287;DHT22;8251;53.568;10.018;2023-12-04T02:21:55;2.20;89.30
16287;DHT22;8251;53.568;10.018;2023-12-04T02:24:24;2.30;89.40
16287;DHT22;8251;53.568;10.018;2023-12-04T02:26:55;2.20;88.90
16287;DHT22;8251;53.568;10.018;2023-12-04T02:29:29;2.20;89.10
16287;DHT22;8251;53.568;10.018;2023-12-04T02:32:11;2.30;89.30
16287;DHT22;8251;53.568;10.018;2023-12-04T02:34:43;2.40;89.50
16287;DHT22;8251;53.568;10.018;2023-12-04T02:37:13;2.30;89.10
16287;DHT22;8251;53.568;10.018;2023-12-04T02:39:46;2.30;90.00
16287;DHT22;8251;53.568;10.018;2023-12-04T02:42:15;2.30;88.90
16287;DHT22;8251;53.568;10.018;2023-12-04T02:44:51;2.30;88.90
16287;DHT22;8251;53.568;10.018;2023-12-04T02:47:18;2.30;88.70
16287;DHT22;8251;53.568;10.018;2023-12-04T02:49:47;2.30;88.70
16287;DHT22;8251;53.568;10.018;2023-12-04T02:52:23;2.30;88.60
16287;DHT22;8251;53.568;10.018;2023-12-04T02:54:52;2.20;89.40
16287;DHT22;8251;53.568;10.018;2023-12-04T02:57:20;2.30;88.80
16287;DHT22;8251;53.568;10.018;2023-12-04T02:59:47;2.30;88.90
16287;DHT22;8251;53.568;10.018;2023-12-04T03:02:15;2.10;88.90
16287;DHT22;8251;53.568;10.018;2023-12-04T03:04:42;2.10;89.10
16287;DHT22;8251;53.568;10.018;2023-12-04T03:07:09;2.10;89.10
16287;DHT22;8251;53.568;10.018;2023-12-04T03:09:36;2.10;89.00
16287;DHT22;8251;53.568;10.018;2023-12-04T03:12:06;2.10;89.00
16287;DHT22;8251;53.568;10.018;2023-12-04T03:14:35;2.10;89.00
16287;DHT22;8251;53.568;10.018;2023-12-04T03:17:02;2.10;88.90
16287;DHT22;8251;53.568;10.018;2023-12-04T03:19:32;2.00;89.10
16287;DHT22;8251;53.568;10.018;2023-12-04T03:22:00;2.10;89.10
16287;DHT22;8251;53.568;10.018;2023-12-04T03:24:26;2.10;89.30
16287;DHT22;8251;53.568;10.018;2023-12-04T03:26:54;2.20;89.70
16287;DHT22;8251;53.568;10.018;2023-12-04T03:29:30;2.10;88.50
16287;DHT22;8251;53.568;10.018;2023-12-04T03:31:57;2.20;88.50
16287;DHT22;8251;53.568;10.018;2023-12-04T03:34:26;2.10;88.50
16287;DHT22;8251;53.568;10.018;2023-12-04T03:36:56;2.10;88.00
16287;DHT22;8251;53.568;10.018;2023-12-04T03:39:52;2.10;88.30
16287;DHT22;8251;53.568;10.018;2023-12-04T03:42:20;2.10;88.30
16287;DHT22;8251;53.568;10.018;2023-12-04T03:44:48;2.10;88.00
16287;DHT22;8251;53.568;10.018;2023-12-04T03:47:15;2.10;88.00
16287;DHT22;8251;53.568;10.018;2023-12-04T03:49:42;2.20;87.80
16287;DHT22;8251;53.568;10.018;2023-12-04T03:52:10;2.20;87.70
16287;DHT22;8251;53.568;10.018;2023-12-04T03:54:38;2.30;87.30
16287;DHT22;8251;53.568;10.018;2023-12-04T03:57:07;2.20;87.10
16287;DHT22;8251;53.568;10.018;2023-12-04T03:59:35;2.20;87.30
16287;DHT22;8251;53.568;10.018;2023-12-04T04:02:04;2.20;87.10
16287;DHT22;8251;53.568;10.018;2023-12-04T04:04:32;2.20;87.90
16287;DHT22;8251;53.568;10.018;2023-12-04T04:07:03;2.20;87.20
16287;DHT22;8251;53.568;10.018;2023-12-04T04:09:31;2.20;87.10
16287;DHT22;8251;53.568;10.018;2023-12-04T04:11:58;2.30;87.20
16287;DHT22;8251;53.568;10.018;2023-12-04T04:14:25;2.30;87.00
16287;DHT22;8251;53.568;10.018;2023-12-04T04:16:58;2.30;86.60
16287;DHT22;8251;53.568;10.018;2023-12-04T04:19:26;2.30;87.50
16287;DHT22;8251;53.568;10.018;2023-12-04T04:21:53;2.30;86.70
16287;DHT22;8251;53.568;10.018;2023-12-04T04:24:21;2.30;86.70
16287;DHT22;8251;53.568;10.018;2023-12-04T04:26:52;2.30;86.60
16287;DHT22;8251;53.568;10.018;2023-12-04T04:29:19;2.30;86.30
16287;DHT22;8251;53.568;10.018;2023-12-04T04:31:46;2.30;86.30
16287;DHT22;8251;53.568;10.018;2023-12-04T04:34:13;2.30;86.40
16287;DHT22;8251;53.568;10.018;2023-12-04T04:36:42;2.40;86.70
16287;DHT22;8251;53.568;10.018;2023-12-04T04:39:12;2.40;86.70
16287;DHT22;8251;53.568;10.018;2023-12-04T04:41:47;2.40;86.20
16287;DHT22;8251;53.568;10.018;2023-12-04T04:44:17;2.50;86.30
16287;DHT22;8251;53.568;10.018;2023-12-04T04:46:46;2.40;86.40
16287;DHT22;8251;53.568;10.018;2023-12-04T04:49:13;2.40;86.20
16287;DHT22;8251;53.568;10.018;2023-12-04T04:51:51;2.40;86.40
16287;DHT22;8251;53.568;10.018;2023-12-04T04:54:18;2.50;86.60
16287;DHT22;8251;53.568;10.018;2023-12-04T04:56:47;2.50;86.50
16287;DHT22;8251;53.568;10.018;2023-12-04T04:59:18;2.60;86.70
16287;DHT22;8251;53.568;10.018;2023-12-04T05:01:45;2.70;86.70
16287;DHT22;8251;53.568;10.018;2023-12-04T05:04:11;2.70;86.10
16287;DHT22;8251;53.568;10.018;2023-12-04T05:06:39;2.60;85.70
16287;DHT22;8251;53.568;10.018;2023-12-04T05:09:17;2.50;86.10
16287;DHT22;8251;53.568;10.018;2023-12-04T05:11:45;2.50;86.40
16287;DHT22;8251;53.568;10.018;2023-12-04T05:14:20;2.50;86.30
16287;DHT22;8251;53.568;10.018;2023-12-04T05:16:47;2.60;86.50
16287;DHT22;8251;53.568;10.018;2023-12-04T05:19:15;2.60;86.60
16287;DHT22;8251;53.568;10.018;2023-12-04T05:21:43;2.60;86.80
16287;DHT22;8251;53.568;10.018;2023-12-04T05:24:11;2.60;86.60
16287;DHT22;8251;53.568;10.018;2023-12-04T05:26:40;2.70;86.70
16287;DHT22;8251;53.568;10.018;2023-12-04T05:29:09;2.70;86.30
16287;DHT22;8251;53.568;10.018;2023-12-04T05:31:42;2.70;86.50
16287;DHT22;8251;53.568;10.018;2023-12-04T05:34:09;2.70;85.90
16287;DHT22;8251;53.568;10.018;2023-12-04T05:36:35;2.70;86.40
16287;DHT22;8251;53.568;10.018;2023-12-04T05:39:02;2.70;86.60
16287;DHT22;8251;53.568;10.018;2023-12-04T05:41:34;2.70;86.30
16287;DHT22;8251;53.568;10.018;2023-12-04T05:44:02;2.80;86.20
16287;DHT22;8251;53.568;10.018;2023-12-04T05:46:29;2.70;86.00
16287;DHT22;8251;53.568;10.018;2023-12-04T05:48:59;2.70;85.70
16287;DHT22;8251;53.568;10.018;2023-12-04T05:51:27;2.70;86.00
16287;DHT22;8251;53.568;10.018;2023-12-04T05:53:55;2.70;85.90
16287;DHT22;8251;53.568;10.018;2023-12-04T05:56:24;2.60;86.10
16287;DHT22;8251;53.568;10.018;2023-12-04T05:58:53;2.50;86.20
16287;DHT22;8251;53.568;10.018;2023-12-04T06:01:24;2.50;86.40
16287;DHT22;8251;53.568;10.018;2023-12-04T06:03:51;2.50;86.60
16287;DHT22;8251;53.568;10.018;2023-12-04T06:06:18;2.40;86.70
16287;DHT22;8251;53.568;10.018;2023-12-04T06:08:46;2.40;87.10
16287;DHT22;8251;53.568;10.018;2023-12-04T06:11:15;2.40;87.20
16287;DHT22;8251;53.568;10.018;2023-12-04T06:13:45;2.40;87.30
16287;DHT22;8251;53.568;10.018;2023-12-04T06:16:12;2.40;87.50
16287;DHT22;8251;53.568;10.018;2023-12-04T06:18:40;2.40;87.80
16287;DHT22;8251;53.568;10.018;2023-12-04T06:21:11;2.40;87.90
16287;DHT22;8251;53.568;10.018;2023-12-04T06:23:38;2.40;88.20
16287;DHT22;8251;53.568;10.018;2023-12-04T06:26:08;2.40;88.50
16287;DHT22;8251;53.568;10.018;2023-12-04T06:28:38;2.50;88.50
16287;DHT22;8251;53.568;10.018;2023-12-04T06:31:08;2.50;88.60
16287;DHT22;8251;53.568;10.018;2023-12-04T06:33:35;2.40;88.70
16287;DHT22;8251;53.568;10.018;2023-12-04T06:36:09;2.40;89.10
16287;DHT22;8251;53.568;10.018;2023-12-04T06:38:39;2.30;89.30
16287;DHT22;8251;53.568;10.018;2023-12-04T06:41:07;2.30;89.90
16287;DHT22;8251;53.568;10.018;2023-12-04T06:43:39;2.30;90.00
16287;DHT22;8251;53.568;10.018;2023-12-04T06:46:08;2.20;90.20
16287;DHT22;8251;53.568;10.018;2023-12-04T06:48:35;2.20;90.40
16287;DHT22;8251;53.568;10.018;2023-12-04T06:51:03;2.20;90.50
16287;DHT22;8251;53.568;10.018;2023-12-04T06:53:38;2.20;90.60
16287;DHT22;8251;53.568;10.018;2023-12-04T06:56:08;2.10;90.80
16287;DHT22;8251;53.568;10.018;2023-12-04T06:58:35;2.20;91.00
16287;DHT22;8251;53.568;10.018;2023-12-04T07:01:03;2.20;91.00
16287;DHT22;8251;53.568;10.018;2023-12-04T07:03:31;2.30;91.10
16287;DHT22;8251;53.568;10.018;2023-12-04T07:05:59;2.40;91.00
16287;DHT22;8251;53.568;10.018;2023-12-04T07:08:26;2.30;90.90
16287;DHT22;8251;53.568;10.018;2023-12-04T07:10:57;2.30;90.90
16287;DHT22;8251;53.568;10.018;2023-12-04T07:13:25;1.90;90.90
16287;DHT22;8251;53.568;10.018;2023-12-04T07:15:52;2.10;91.20
16287;DHT22;8251;53.568;10.018;2023-12-04T07:18:20;2.30;91.30
16287;DHT22;8251;53.568;10.018;2023-12-04T07:20:50;2.30;91.30
16287;DHT22;8251;53.568;10.018;2023-12-04T07:23:17;2.40;91.30
16287;DHT22;8251;53.568;10.018;2023-12-04T07:25:45;2.40;91.30
16287;DHT22;8251;53.568;10.018;2023-12-04T07:28:14;2.40;91.40
16287;DHT22;8251;53.568;10.018;2023-12-04T07:30:41;2.40;91.30
16287;DHT22;8251;53.568;10.018;2023-12-04T07:33:08;2.40;91.20
16287;DHT22;8251;53.568;10.018;2023-12-04T07:35:37;2.40;91.10
16287;DHT22;8251;53.568;10.018;2023-12-04T07:38:05;2.40;91.10
16287;DHT22;8251;53.568;10.018;2023-12-04T07:40:32;2.40;91.30
16287;DHT22;8251;53.568;10.018;2023-12-04T07:42:59;2.40;91.50
16287;DHT22;8251;53.568;10.018;2023-12-04T07:45:29;2.40;91.60
16287;DHT22;8251;53.568;10.018;2023-12-04T07:48:00;2.60;91.60
16287;DHT22;8251;53.568;10.018;2023-12-04T07:50:27;2.50;91.70
16287;DHT22;8251;53.568;10.018;2023-12-04T07:52:54;2.50;91.70
16287;DHT22;8251;53.568;10.018;2023-12-04T07:55:21;2.50;91.60
16287;DHT22;8251;53.568;10.018;2023-12-04T07:57:48;2.50;91.70
16287;DHT22;8251;53.568;10.018;2023-12-04T08:00:17;2.50;91.70
16287;DHT22;8251;53.568;10.018;2023-12-04T08:02:45;2.50;91.60
16287;DHT22;8251;53.568;10.018;2023-12-04T08:05:14;2.50;91.60
16287;DHT22;8251;53.568;10.018;2023-12-04T08:07:44;2.50;91.60
16287;DHT22;8251;53.568;10.018;2023-12-04T08:10:16;2.50;91.70
16287;DHT22;8251;53.568;10.018;2023-12-04T08:12:58;2.50;91.80
16287;DHT22;8251;53.568;10.018;2023-12-04T08:15:25;2.50;91.90
16287;DHT22;8251;53.568;10.018;2023-12-04T08:17:57;2.60;91.90
16287;DHT22;8251;53.568;10.018;2023-12-04T08:20:25;2.50;91.70
16287;DHT22;8251;53.568;10.018;2023-12-04T08:22:53;2.50;91.70
16287;DHT22;8251;53.568;10.018;2023-12-04T08:25:20;2.50;91.70
16287;DHT22;8251;53.568;10.018;2023-12-04T08:27:47;2.50;91.80
16287;DHT22;8251;53.568;10.018;2023-12-04T08:30:15;2.40;92.00
16287;DHT22;8251;53.568;10.018;2023-12-04T08:32:42;2.40;91.90
16287;DHT22;8251;53.568;10.018;2023-12-04T08:35:11;2.50;92.20
16287;DHT22;8251;53.568;10.018;2023-12-04T08:37:38;2.50;91.70
16287;DHT22;8251;53.568;10.018;2023-12-04T08:40:07;2.50;91.70
16287;DHT22;8251;53.568;10.018;2023-12-04T08:42:34;2.50;91.70
16287;DHT22;8251;53.568;10.018;2023-12-04T08:45:01;2.50;91.80
16287;DHT22;8251;53.568;10.018;2023-12-04T08:47:31;2.60;91.80
16287;DHT22;8251;53.568;10.018;2023-12-04T08:50:00;2.60;91.80
16287;DHT22;8251;53.568;10.018;2023-12-04T08:52:28;2.60;91.70
16287;DHT22;8251;53.568;10.018;2023-12-04T08:54:56;2.60;91.70
16287;DHT22;8251;53.568;10.018;2023-12-04T08:57:23;2.50;91.60
16287;DHT22;8251;53.568;10.018;2023-12-04T08:59:50;2.40;91.70
16287;DHT22;8251;53.568;10.018;2023-12-04T09:02:18;2.50;91.80
16287;DHT22;8251;53.568;10.018;2023-12-04T09:04:46;2.50;91.90
16287;DHT22;8251;53.568;10.018;2023-12-04T09:07:13;2.50;91.90
16287;DHT22;8251;53.568;10.018;2023-12-04T09:09:41;2.50;91.90
16287;DHT22;8251;53.568;10.018;2023-12-04T09:12:09;2.50;92.00
16287;DHT22;8251;53.568;10.018;2023-12-04T09:14:36;2.50;92.00
16287;DHT22;8251;53.568;10.018;2023-12-04T09:17:06;2.50;92.10
16287;DHT22;8251;53.568;10.018;2023-12-04T09:19:33;2.60;92.10
16287;DHT22;8251;53.568;10.018;2023-12-04T09:22:00;2.60;92.10
16287;DHT22;8251;53.568;10.018;2023-12-04T09:24:27;2.60;92.40
16287;DHT22;8251;53.568;10.018;2023-12-04T09:26:55;2.60;92.10
16287;DHT22;8251;53.568;10.018;2023-12-04T09:29:25;2.70;92.20
16287;DHT22;8251;53.568;10.018;2023-12-04T09:31:51;2.70;92.20
16287;DHT22;8251;53.568;10.018;2023-12-04T09:34:19;2.70;91.90
16287;DHT22;8251;53.568;10.018;2023-12-04T09:36:48;2.70;91.90
16287;DHT22;8251;53.568;10.018;2023-12-04T09:39:17;2.70;92.00
16287;DHT22;8251;53.568;10.018;2023-12-04T09:41:45;2.60;92.00
16287;DHT22;8251;53.568;10.018;2023-12-04T09:44:14;2.60;92.00
16287;DHT22;8251;53.568;10.018;2023-12-04T09:46:53;2.60;92.10
16287;DHT22;8251;53.568;10.018;2023-12-04T09:49:20;2.60;92.20
16287;DHT22;8251;53.568;10.018;2023-12-04T09:51:48;2.60;92.10
16287;DHT22;8251;53.568;10.018;2023-12-04T09:54:17;2.60;92.20
16287;DHT22;8251;53.568;10.018;2023-12-04T09:56:45;2.70;92.20
16287;DHT22;8251;53.568;10.018;2023-12-04T09:59:17;2.70;92.20
16287;DHT22;8251;53.568;10.018;2023-12-04T10:01:45;2.80;92.20
16287;DHT22;8251;53.568;10.018;2023-12-04T10:04:13;2.80;92.20
16287;DHT22;8251;53.568;10.018;2023-12-04T10:06:41;2.90;92.10
16287;DHT22;8251;53.568;10.018;2023-12-04T10:09:09;2.90;92.00
16287;DHT22;8251;53.568;10.018;2023-12-04T10:11:40;3.00;91.90
16287;DHT22;8251;53.568;10.018;2023-12-04T10:14:14;2.90;91.60
16287;DHT22;8251;53.568;10.018;2023-12-04T10:16:43;2.90;91.50
16287;DHT22;8251;53.568;10.018;2023-12-04T10:19:18;2.80;91.30
16287;DHT22;8251;53.568;10.018;2023-12-04T10:21:45;2.80;91.50
16287;DHT22;8251;53.568;10.018;2023-12-04T10:24:13;2.80;91.60
16287;DHT22;8251;53.568;10.018;2023-12-04T10:26:53;2.90;91.70
16287;DHT22;8251;53.568;10.018;2023-12-04T10:29:20;2.90;91.40
16287;DHT22;8251;53.568;10.018;2023-12-04T10:31:49;2.90;91.80
16287;DHT22;8251;53.568;10.018;2023-12-04T10:34:18;3.00;91.40
16287;DHT22;8251;53.568;10.018;2023-12-04T10:36:47;3.00;91.40
16287;DHT22;8251;53.568;10.018;2023-12-04T10:39:14;3.00;91.30
16287;DHT22;8251;53.568;10.018;2023-12-04T10:41:43;3.10;91.30
16287;DHT22;8251;53.568;10.018;2023-12-04T10:44:15;3.10;91.20
16287;DHT22;8251;53.568;10.018;2023-12-04T10:46:45;3.20;91.30
16287;DHT22;8251;53.568;10.018;2023-12-04T10:49:15;3.20;91.00
16287;DHT22;8251;53.568;10.018;2023-12-04T10:51:44;3.20;91.10
16287;DHT22;8251;53.568;10.018;2023-12-04T10:54:11;3.20;90.60
16287;DHT22;8251;53.568;10.018;2023-12-04T10:56:40;3.10;90.70
16287;DHT22;8251;53.568;10.018;2023-12-04T10:59:11;3.10;90.70
16287;DHT22;8251;53.568;10.018;2023-12-04T11:01:44;3.20;90.90
16287;DHT22;8251;53.568;10.018;2023-12-04T11:04:16;3.20;90.80
16287;DHT22;8251;53.568;10.018;2023-12-04T11:06:45;3.30;90.70
16287;DHT22;8251;53.568;10.018;2023-12-04T11:09:16;3.30;90.60
16287;DHT22;8251;53.568;10.018;2023-12-04T11:11:51;3.30;90.60
16287;DHT22;8251;53.568;10.018;2023-12-04T11:14:22;3.30;90.40
16287;DHT22;8251;53.568;10.018;2023-12-04T11:16:52;3.30;90.40
16287;DHT22;8251;53.568;10.018;2023-12-04T11:19:29;3.30;90.40
16287;DHT22;8251;53.568;10.018;2023-12-04T11:21:59;3.30;90.40
16287;DHT22;8251;53.568;10.018;2023-12-04T11:24:26;3.30;90.40
16287;DHT22;8251;53.568;10.018;2023-12-04T11:26:54;3.30;90.30
16287;DHT22;8251;53.568;10.018;2023-12-04T11:29:22;3.40;90.00
16287;DHT22;8251;53.568;10.018;2023-12-04T11:31:50;3.40;90.00
16287;DHT22;8251;53.568;10.018;2023-12-04T11:34:18;3.40;90.10
16287;DHT22;8251;53.568;10.018;2023-12-04T11:36:46;3.30;90.10
16287;DHT22;8251;53.568;10.018;2023-12-04T11:39:14;3.40;90.10
16287;DHT22;8251;53.568;10.018;2023-12-04T11:41:41;3.40;89.90
16287;DHT22;8251;53.568;10.018;2023-12-04T11:44:12;3.40;90.00
16287;DHT22;8251;53.568;10.018;2023-12-04T11:46:55;3.40;90.00
16287;DHT22;8251;53.568;10.018;2023-12-04T11:49:29;3.40;89.70
16287;DHT22;8251;53.568;10.018;2023-12-04T11:52:00;3.40;89.70
16287;DHT22;8251;53.568;10.018;2023-12-04T11:54:28;3.40;89.70
16287;DHT22;8251;53.568;10.018;2023-12-04T11:57:00;3.50;89.80
16287;DHT22;8251;53.568;10.018;2023-12-04T11:59:36;3.50;89.30
16287;DHT22;8251;53.568;10.018;2023-12-04T12:02:07;3.50;89.50
16287;DHT22;8251;53.568;10.018;2023-12-04T12:04:36;3.40;89.40
16287;DHT22;8251;53.568;10.018;2023-12-04T12:07:09;3.40;89.10
16287;DHT22;8251;53.568;10.018;2023-12-04T12:09:36;3.50;89.10
16287;DHT22;8251;53.568;10.018;2023-12-04T12:12:07;3.40;89.30
16287;DHT22;8251;53.568;10.018;2023-12-04T12:14:35;3.50;89.30
16287;DHT22;8251;53.568;10.018;2023-12-04T12:17:02;3.40;89.10
16287;DHT22;8251;53.568;10.018;2023-12-04T12:19:29;3.40;88.70
16287;DHT22;8251;53.568;10.018;2023-12-04T12:21:56;3.30;88.80
16287;DHT22;8251;53.568;10.018;2023-12-04T12:24:25;3.30;89.30
16287;DHT22;8251;53.568;10.018;2023-12-04T12:26:54;3.40;89.10
16287;DHT22;8251;53.568;10.018;2023-12-04T12:29:22;3.40;89.30
16287;DHT22;8251;53.568;10.018;2023-12-04T12:31:49;3.50;89.30
16287;DHT22;8251;53.568;10.018;2023-12-04T12:34:17;3.40;89.00
16287;DHT22;8251;53.568;10.018;2023-12-04T12:36:44;3.50;88.90
16287;DHT22;8251;53.568;10.018;2023-12-04T12:39:11;3.40;88.70
16287;DHT22;8251;53.568;10.018;2023-12-04T12:41:40;3.40;88.60
16287;DHT22;8251;53.568;10.018;2023-12-04T12:44:13;3.40;89.00
16287;DHT22;8251;53.568;10.018;2023-12-04T12:46:40;3.40;88.80
16287;DHT22;8251;53.568;10.018;2023-12-04T12:49:13;3.20;88.70
16287;DHT22;8251;53.568;10.018;2023-12-04T12:51:41;3.40;89.00
16287;DHT22;8251;53.568;10.018;2023-12-04T12:54:08;3.40;88.80
16287;DHT22;8251;53.568;10.018;2023-12-04T12:56:35;3.40;88.70
16287;DHT22;8251;53.568;10.018;2023-12-04T12:59:04;3.30;89.00
16287;DHT22;8251;53.568;10.018;2023-12-04T13:01:35;3.30;89.40
16287;DHT22;8251;53.568;10.018;2023-12-04T13:04:02;3.40;89.30
16287;DHT22;8251;53.568;10.018;2023-12-04T13:06:29;3.40;89.10
16287;DHT22;8251;53.568;10.018;2023-12-04T13:09:03;3.40;88.90
16287;DHT22;8251;53.568;10.018;2023-12-04T13:11:32;3.40;89.00
16287;DHT22;8251;53.568;10.018;2023-12-04T13:13:59;3.50;89.00
16287;DHT22;8251;53.568;10.018;2023-12-04T13:16:28;3.40;88.90
16287;DHT22;8251;53.568;10.018;2023-12-04T13:18:55;3.70;88.90
16287;DHT22;8251;53.568;10.018;2023-12-04T13:21:21;3.50;88.60
16287;DHT22;8251;53.568;10.018;2023-12-04T13:23:48;3.50;88.70
16287;DHT22;8251;53.568;10.018;2023-12-04T13:26:15;3.50;88.70
16287;DHT22;8251;53.568;10.018;2023-12-04T13:28:42;3.60;88.70
16287;DHT22;8251;53.568;10.018;2023-12-04T13:31:11;3.50;88.30
16287;DHT22;8251;53.568;10.018;2023-12-04T13:33:40;3.50;88.50
16287;DHT22;8251;53.568;10.018;2023-12-04T13:36:09;3.50;88.70
16287;DHT22;8251;53.568;10.018;2023-12-04T13:38:36;3.50;88.80
16287;DHT22;8251;53.568;10.018;2023-12-04T13:41:11;3.50;89.10
16287;DHT22;8251;53.568;10.018;2023-12-04T13:44:05;3.30;88.90
16287;DHT22;8251;53.568;10.018;2023-12-04T13:46:32;3.60;88.80
16287;DHT22;8251;53.568;10.018;2023-12-04T13:49:00;3.60;88.70
16287;DHT22;8251;53.568;10.018;2023-12-04T13:51:27;3.70;89.50
16287;DHT22;8251;53.568;10.018;2023-12-04T13:53:54;3.70;89.40
16287;DHT22;8251;53.568;10.018;2023-12-04T13:56:28;3.80;89.30
16287;DHT22;8251;53.568;10.018;2023-12-04T13:59:08;3.80;89.80
16287;DHT22;8251;53.568;10.018;2023-12-04T14:01:44;3.90;88.80
16287;DHT22;8251;53.568;10.018;2023-12-04T14:04:12;3.90;88.30
16287;DHT22;8251;53.568;10.018;2023-12-04T14:06:39;4.00;88.40
16287;DHT22;8251;53.568;10.018;2023-12-04T14:09:10;4.00;88.30
16287;DHT22;8251;53.568;10.018;2023-12-04T14:11:41;4.00;88.40
16287;DHT22;8251;53.568;10.018;2023-12-04T14:14:08;4.00;88.30
16287;DHT22;8251;53.568;10.018;2023-12-04T14:16:35;3.90;88.20
16287;DHT22;8251;53.568;10.018;2023-12-04T14:19:02;4.00;88.50
16287;DHT22;8251;53.568;10.018;2023-12-04T14:21:31;4.00;88.70
16287;DHT22;8251;53.568;10.018;2023-12-04T14:23:58;4.00;88.30
16287;DHT22;8251;53.568;10.018;2023-12-04T14:26:25;4.00;88.30
16287;DHT22;8251;53.568;10.018;2023-12-04T14:28:53;4.00;88.50
16287;DHT22;8251;53.568;10.018;2023-12-04T14:31:23;3.90;87.90
16287;DHT22;8251;53.568;10.018;2023-12-04T14:33:51;4.00;88.20
16287;DHT22;8251;53.568;10.018;2023-12-04T14:36:18;4.00;88.30
16287;DHT22;8251;53.568;10.018;2023-12-04T14:38:46;4.00;88.40
16287;DHT22;8251;53.568;10.018;2023-12-04T14:41:13;4.00;88.10
16287;DHT22;8251;53.568;10.018;2023-12-04T14:43:40;3.90;88.50
16287;DHT22;8251;53.568;10.018;2023-12-04T14:46:08;3.90;88.10
16287;DHT22;8251;53.568;10.018;2023-12-04T14:48:37;3.80;88.10
16287;DHT22;8251;53.568;10.018;2023-12-04T14:51:08;3.70;88.40
16287;DHT22;8251;53.568;10.018;2023-12-04T14:53:37;3.60;88.60
16287;DHT22;8251;53.568;10.018;2023-12-04T14:56:17;3.60;88.80
16287;DHT22;8251;53.568;10.018;2023-12-04T14:58:52;3.60;88.80
16287;DHT22;8251;53.568;10.018;2023-12-04T15:01:33;3.60;88.90
16287;DHT22;8251;53.568;10.018;2023-12-04T15:04:28;3.60;89.10
16287;DHT22;8251;53.568;10.018;2023-12-04T15:07:12;3.60;89.20
16287;DHT22;8251;53.568;10.018;2023-12-04T15:09:57;3.60;88.90
16287;DHT22;8251;53.568;10.018;2023-12-04T15:12:39;3.60;89.00
16287;DHT22;8251;53.568;10.018;2023-12-04T15:15:32;3.60;89.00
16287;DHT22;8251;53.568;10.018;2023-12-04T15:18:24;3.60;89.00
16287;DHT22;8251;53.568;10.018;2023-12-04T15:21:02;3.60;89.10
16287;DHT22;8251;53.568;10.018;2023-12-04T15:23:28;3.60;89.20
16287;DHT22;8251;53.568;10.018;2023-12-04T15:25:58;3.70;89.00
16287;DHT22;8251;53.568;10.018;2023-12-04T15:28:26;3.70;88.70
16287;DHT22;8251;53.568;10.018;2023-12-04T15:30:54;3.70;88.50
16287;DHT22;8251;53.568;10.018;2023-12-04T15:33:21;3.70;88.50
16287;DHT22;8251;53.568;10.018;2023-12-04T15:35:55;3.70;88.40
16287;DHT22;8251;53.568;10.018;2023-12-04T15:38:23;3.70;88.20
16287;DHT22;8251;53.568;10.018;2023-12-04T15:40:50;3.70;88.20
16287;DHT22;8251;53.568;10.018;2023-12-04T15:43:19;3.70;88.50
16287;DHT22;8251;53.568;10.018;2023-12-04T15:46:02;3.70;88.30
16287;DHT22;8251;53.568;10.018;2023-12-04T15:48:31;3.70;88.00
16287;DHT22;8251;53.568;10.018;2023-12-04T15:51:00;3.60;87.50
16287;DHT22;8251;53.568;10.018;2023-12-04T15:53:26;3.60;87.70
16287;DHT22;8251;53.568;10.018;2023-12-04T15:55:53;3.50;87.80
16287;DHT22;8251;53.568;10.018;2023-12-04T15:58:19;3.50;87.80